sensor_id;sensor_type;location;lat;lon;timestamp;P1;durP1;ratioP1;P2;durP2;ratioP2
51270;SDS011;37744;50.960;4.136;2023-03-17T00:00:10;1.67;;;1.20;;
51270;SDS011;37744;50.960;4.136;2023-03-17T00:02:37;2.30;;;1.52;;
51270;SDS011;37744;50.960;4.136;2023-03-17T00:05:52;2.65;;;1.30;;
51270;SDS011;37744;50.960;4.136;2023-03-17T00:07:53;3.25;;;1.17;;
51270;SDS011;37744;50.960;4.136;2023-03-17T00:12:49;2.53;;;1.42;;
51270;SDS011;37744;50.960;4.136;2023-03-17T00:15:18;2.80;;;1.42;;
51270;SDS011;37744;50.960;4.136;2023-03-17T00:17:50;3.58;;;1.48;;
51270;SDS011;37744;50.960;4.136;2023-03-17T00:20:28;1.33;;;1.20;;
51270;SDS011;37744;50.960;4.136;2023-03-17T00:22:55;3.42;;;1.40;;
51270;SDS011;37744;50.960;4.136;2023-03-17T00:25:28;2.40;;;1.25;;
51270;SDS011;37744;50.960;4.136;2023-03-17T00:27:55;3.00;;;1.35;;
51270;SDS011;37744;50.960;4.136;2023-03-17T00:30:22;2.20;;;1.40;;
51270;SDS011;37744;50.960;4.136;2023-03-17T00:35:23;2.35;;;1.40;;
51270;SDS011;37744;50.960;4.136;2023-03-17T00:37:50;2.20;;;1.42;;
51270;SDS011;37744;50.960;4.136;2023-03-17T00:40:26;2.85;;;1.40;;
51270;SDS011;37744;50.960;4.136;2023-03-17T00:42:54;1.80;;;1.48;;
51270;SDS011;37744;50.960;4.136;2023-03-17T00:45:23;1.60;;;1.20;;
51270;SDS011;37744;50.960;4.136;2023-03-17T00:47:52;6.00;;;1.50;;
51270;SDS011;37744;50.960;4.136;2023-03-17T00:50:24;2.25;;;1.50;;
51270;SDS011;37744;50.960;4.136;2023-03-17T00:52:52;1.30;;;1.15;;
51270;SDS011;37744;50.960;4.136;2023-03-17T00:55:19;2.25;;;1.40;;
51270;SDS011;37744;50.960;4.136;2023-03-17T00:57:47;4.55;;;1.40;;
51270;SDS011;37744;50.960;4.136;2023-03-17T01:05:11;3.33;;;1.30;;
51270;SDS011;37744;50.960;4.136;2023-03-17T01:12:45;2.45;;;1.38;;
51270;SDS011;37744;50.960;4.136;2023-03-17T01:15:16;3.00;;;1.40;;
51270;SDS011;37744;50.960;4.136;2023-03-17T01:17:43;2.70;;;1.45;;
51270;SDS011;37744;50.960;4.136;2023-03-17T01:20:14;3.20;;;1.60;;
51270;SDS011;37744;50.960;4.136;2023-03-17T01:22:40;1.50;;;1.33;;
51270;SDS011;37744;50.960;4.136;2023-03-17T01:25:12;2.75;;;1.52;;
51270;SDS011;37744;50.960;4.136;2023-03-17T01:27:40;2.75;;;1.60;;
51270;SDS011;37744;50.960;4.136;2023-03-17T01:30:09;1.83;;;1.45;;
51270;SDS011;37744;50.960;4.136;2023-03-17T01:35:07;1.77;;;1.25;;
51270;SDS011;37744;50.960;4.136;2023-03-17T01:37:38;4.50;;;1.55;;
51270;SDS011;37744;50.960;4.136;2023-03-17T01:40:04;2.75;;;1.50;;
51270;SDS011;37744;50.960;4.136;2023-03-17T01:42:32;3.00;;;1.35;;
51270;SDS011;37744;50.960;4.136;2023-03-17T01:45:01;4.03;;;1.50;;
51270;SDS011;37744;50.960;4.136;2023-03-17T01:47:30;2.83;;;1.45;;
51270;SDS011;37744;50.960;4.136;2023-03-17T01:49:59;3.13;;;1.38;;
51270;SDS011;37744;50.960;4.136;2023-03-17T01:52:36;3.90;;;1.40;;
51270;SDS011;37744;50.960;4.136;2023-03-17T01:55:03;1.70;;;1.33;;
51270;SDS011;37744;50.960;4.136;2023-03-17T01:57:36;2.67;;;1.60;;
51270;SDS011;37744;50.960;4.136;2023-03-17T02:00:14;2.53;;;1.35;;
51270;SDS011;37744;50.960;4.136;2023-03-17T02:10:16;4.20;;;1.42;;
51270;SDS011;37744;50.960;4.136;2023-03-17T02:12:44;1.45;;;1.35;;
51270;SDS011;37744;50.960;4.136;2023-03-17T02:15:13;2.45;;;1.20;;
51270;SDS011;37744;50.960;4.136;2023-03-17T02:22:56;3.05;;;1.50;;
51270;SDS011;37744;50.960;4.136;2023-03-17T02:25:27;1.60;;;1.38;;
51270;SDS011;37744;50.960;4.136;2023-03-17T02:27:56;2.00;;;1.33;;
51270;SDS011;37744;50.960;4.136;2023-03-17T02:30:29;2.72;;;1.10;;
51270;SDS011;37744;50.960;4.136;2023-03-17T02:32:56;2.92;;;1.20;;
51270;SDS011;37744;50.960;4.136;2023-03-17T02:35:24;2.33;;;1.40;;
51270;SDS011;37744;50.960;4.136;2023-03-17T02:37:49;2.08;;;1.65;;
51270;SDS011;37744;50.960;4.136;2023-03-17T02:40:15;3.25;;;1.50;;
51270;SDS011;37744;50.960;4.136;2023-03-17T02:42:40;3.25;;;1.30;;
51270;SDS011;37744;50.960;4.136;2023-03-17T02:47:41;2.33;;;1.50;;
51270;SDS011;37744;50.960;4.136;2023-03-17T02:50:10;1.98;;;1.38;;
51270;SDS011;37744;50.960;4.136;2023-03-17T02:52:41;3.00;;;1.48;;
51270;SDS011;37744;50.960;4.136;2023-03-17T02:55:08;3.30;;;1.35;;
51270;SDS011;37744;50.960;4.136;2023-03-17T03:00:03;1.95;;;1.33;;
51270;SDS011;37744;50.960;4.136;2023-03-17T03:04:58;3.55;;;1.50;;
51270;SDS011;37744;50.960;4.136;2023-03-17T03:07:23;2.97;;;1.30;;
51270;SDS011;37744;50.960;4.136;2023-03-17T03:12:23;2.13;;;1.20;;
51270;SDS011;37744;50.960;4.136;2023-03-17T03:14:49;2.53;;;1.30;;
51270;SDS011;37744;50.960;4.136;2023-03-17T03:17:21;3.80;;;1.40;;
51270;SDS011;37744;50.960;4.136;2023-03-17T03:19:47;3.13;;;1.63;;
51270;SDS011;37744;50.960;4.136;2023-03-17T03:22:15;2.45;;;1.40;;
51270;SDS011;37744;50.960;4.136;2023-03-17T03:24:40;2.45;;;1.20;;
51270;SDS011;37744;50.960;4.136;2023-03-17T03:27:12;2.75;;;1.27;;
51270;SDS011;37744;50.960;4.136;2023-03-17T03:29:38;4.47;;;1.50;;
51270;SDS011;37744;50.960;4.136;2023-03-17T03:32:04;2.45;;;1.45;;
51270;SDS011;37744;50.960;4.136;2023-03-17T03:36:59;4.25;;;1.25;;
51270;SDS011;37744;50.960;4.136;2023-03-17T03:41:54;2.35;;;1.55;;
51270;SDS011;37744;50.960;4.136;2023-03-17T03:44:25;1.52;;;1.20;;
51270;SDS011;37744;50.960;4.136;2023-03-17T03:46:53;1.90;;;1.48;;
51270;SDS011;37744;50.960;4.136;2023-03-17T03:49:20;1.92;;;1.38;;
51270;SDS011;37744;50.960;4.136;2023-03-17T03:51:48;2.63;;;1.60;;
51270;SDS011;37744;50.960;4.136;2023-03-17T03:54:13;4.07;;;1.48;;
51270;SDS011;37744;50.960;4.136;2023-03-17T03:56:41;3.53;;;1.58;;
51270;SDS011;37744;50.960;4.136;2023-03-17T03:59:06;2.60;;;1.60;;
51270;SDS011;37744;50.960;4.136;2023-03-17T04:01:32;2.70;;;1.63;;
51270;SDS011;37744;50.960;4.136;2023-03-17T04:04:04;5.57;;;1.92;;
51270;SDS011;37744;50.960;4.136;2023-03-17T04:06:31;5.22;;;1.60;;
51270;SDS011;37744;50.960;4.136;2023-03-17T04:08:59;3.88;;;1.52;;
51270;SDS011;37744;50.960;4.136;2023-03-17T04:11:24;3.47;;;1.67;;
51270;SDS011;37744;50.960;4.136;2023-03-17T04:13:50;1.20;;;1.15;;
51270;SDS011;37744;50.960;4.136;2023-03-17T04:16:18;3.65;;;1.58;;
51270;SDS011;37744;50.960;4.136;2023-03-17T04:18:44;2.28;;;1.30;;
51270;SDS011;37744;50.960;4.136;2023-03-17T04:21:10;2.47;;;1.52;;
51270;SDS011;37744;50.960;4.136;2023-03-17T04:23:42;2.05;;;1.40;;
51270;SDS011;37744;50.960;4.136;2023-03-17T04:26:08;2.92;;;1.60;;
51270;SDS011;37744;50.960;4.136;2023-03-17T04:28:40;3.15;;;1.73;;
51270;SDS011;37744;50.960;4.136;2023-03-17T04:31:08;3.28;;;1.77;;
51270;SDS011;37744;50.960;4.136;2023-03-17T04:33:38;2.08;;;1.40;;
51270;SDS011;37744;50.960;4.136;2023-03-17T04:36:04;3.13;;;1.80;;
51270;SDS011;37744;50.960;4.136;2023-03-17T04:38:34;3.78;;;1.70;;
51270;SDS011;37744;50.960;4.136;2023-03-17T04:41:01;2.83;;;1.50;;
51270;SDS011;37744;50.960;4.136;2023-03-17T04:43:26;3.50;;;1.73;;
51270;SDS011;37744;50.960;4.136;2023-03-17T04:48:21;2.55;;;1.50;;
51270;SDS011;37744;50.960;4.136;2023-03-17T04:50:48;3.20;;;1.58;;
51270;SDS011;37744;50.960;4.136;2023-03-17T04:53:14;5.53;;;1.67;;
51270;SDS011;37744;50.960;4.136;2023-03-17T04:55:40;5.03;;;1.83;;
51270;SDS011;37744;50.960;4.136;2023-03-17T04:58:12;3.28;;;1.80;;
51270;SDS011;37744;50.960;4.136;2023-03-17T05:00:37;2.55;;;1.75;;
51270;SDS011;37744;50.960;4.136;2023-03-17T05:03:09;4.28;;;1.77;;
51270;SDS011;37744;50.960;4.136;2023-03-17T05:05:34;4.63;;;1.80;;
51270;SDS011;37744;50.960;4.136;2023-03-17T05:10:33;2.25;;;1.63;;
51270;SDS011;37744;50.960;4.136;2023-03-17T05:12:58;2.03;;;1.40;;
51270;SDS011;37744;50.960;4.136;2023-03-17T05:15:24;2.75;;;1.77;;
51270;SDS011;37744;50.960;4.136;2023-03-17T05:17:56;6.18;;;2.08;;
51270;SDS011;37744;50.960;4.136;2023-03-17T05:20:24;4.35;;;1.52;;
51270;SDS011;37744;50.960;4.136;2023-03-17T05:22:51;2.67;;;1.67;;
51270;SDS011;37744;50.960;4.136;2023-03-17T05:25:22;3.67;;;1.90;;
51270;SDS011;37744;50.960;4.136;2023-03-17T05:27:47;4.35;;;1.80;;
51270;SDS011;37744;50.960;4.136;2023-03-17T05:30:14;2.97;;;1.80;;
51270;SDS011;37744;50.960;4.136;2023-03-17T05:32:39;5.38;;;1.90;;
51270;SDS011;37744;50.960;4.136;2023-03-17T05:35:11;4.10;;;1.70;;
51270;SDS011;37744;50.960;4.136;2023-03-17T05:37:39;2.80;;;1.92;;
51270;SDS011;37744;50.960;4.136;2023-03-17T05:40:06;5.40;;;1.90;;
51270;SDS011;37744;50.960;4.136;2023-03-17T05:42:34;3.70;;;1.90;;
51270;SDS011;37744;50.960;4.136;2023-03-17T05:45:01;4.60;;;1.90;;
51270;SDS011;37744;50.960;4.136;2023-03-17T05:47:30;5.85;;;2.08;;
51270;SDS011;37744;50.960;4.136;2023-03-17T05:50:03;5.07;;;1.92;;
51270;SDS011;37744;50.960;4.136;2023-03-17T05:52:31;3.35;;;2.00;;
51270;SDS011;37744;50.960;4.136;2023-03-17T05:54:59;3.10;;;2.08;;
51270;SDS011;37744;50.960;4.136;2023-03-17T05:57:25;4.38;;;2.25;;
51270;SDS011;37744;50.960;4.136;2023-03-17T05:59:50;5.10;;;2.00;;
51270;SDS011;37744;50.960;4.136;2023-03-17T06:02:17;4.90;;;2.20;;
51270;SDS011;37744;50.960;4.136;2023-03-17T06:04:43;3.63;;;2.20;;
51270;SDS011;37744;50.960;4.136;2023-03-17T06:07:14;4.35;;;1.98;;
51270;SDS011;37744;50.960;4.136;2023-03-17T06:09:39;5.18;;;2.03;;
51270;SDS011;37744;50.960;4.136;2023-03-17T06:12:11;22.33;;;11.27;;
51270;SDS011;37744;50.960;4.136;2023-03-17T06:17:08;5.05;;;3.15;;
51270;SDS011;37744;50.960;4.136;2023-03-17T06:19:36;5.55;;;3.40;;
51270;SDS011;37744;50.960;4.136;2023-03-17T06:22:05;5.88;;;2.42;;
51270;SDS011;37744;50.960;4.136;2023-03-17T06:27:02;4.43;;;2.20;;
51270;SDS011;37744;50.960;4.136;2023-03-17T06:29:29;3.53;;;2.50;;
51270;SDS011;37744;50.960;4.136;2023-03-17T06:31:56;5.53;;;2.40;;
51270;SDS011;37744;50.960;4.136;2023-03-17T06:34:22;4.57;;;1.90;;
51270;SDS011;37744;50.960;4.136;2023-03-17T06:36:48;3.47;;;1.90;;
51270;SDS011;37744;50.960;4.136;2023-03-17T06:39:18;3.90;;;2.22;;
51270;SDS011;37744;50.960;4.136;2023-03-17T06:41:45;5.25;;;2.30;;
51270;SDS011;37744;50.960;4.136;2023-03-17T06:44:13;3.65;;;2.28;;
51270;SDS011;37744;50.960;4.136;2023-03-17T06:51:46;4.38;;;2.03;;
51270;SDS011;37744;50.960;4.136;2023-03-17T06:56:44;7.32;;;2.20;;
51270;SDS011;37744;50.960;4.136;2023-03-17T06:59:10;5.22;;;2.22;;
51270;SDS011;37744;50.960;4.136;2023-03-17T07:01:40;5.22;;;1.88;;
51270;SDS011;37744;50.960;4.136;2023-03-17T07:04:05;4.18;;;1.90;;
51270;SDS011;37744;50.960;4.136;2023-03-17T07:06:31;4.85;;;2.33;;
51270;SDS011;37744;50.960;4.136;2023-03-17T07:08:59;5.22;;;2.25;;
51270;SDS011;37744;50.960;4.136;2023-03-17T07:11:26;6.15;;;2.15;;
51270;SDS011;37744;50.960;4.136;2023-03-17T07:16:30;7.63;;;2.33;;
51270;SDS011;37744;50.960;4.136;2023-03-17T07:18:57;5.40;;;2.10;;
51270;SDS011;37744;50.960;4.136;2023-03-17T07:21:25;4.40;;;1.95;;
51270;SDS011;37744;50.960;4.136;2023-03-17T07:23:51;4.10;;;1.90;;
51270;SDS011;37744;50.960;4.136;2023-03-17T07:26:19;4.57;;;1.92;;
51270;SDS011;37744;50.960;4.136;2023-03-17T07:28:45;3.63;;;2.10;;
51270;SDS011;37744;50.960;4.136;2023-03-17T07:31:11;6.30;;;2.10;;
51270;SDS011;37744;50.960;4.136;2023-03-17T07:33:39;5.03;;;2.33;;
51270;SDS011;37744;50.960;4.136;2023-03-17T07:36:05;4.70;;;2.15;;
51270;SDS011;37744;50.960;4.136;2023-03-17T07:38:32;7.13;;;2.33;;
51270;SDS011;37744;50.960;4.136;2023-03-17T07:40:58;5.60;;;2.38;;
51270;SDS011;37744;50.960;4.136;2023-03-17T07:43:24;6.18;;;2.60;;
51270;SDS011;37744;50.960;4.136;2023-03-17T07:45:50;4.80;;;2.30;;
51270;SDS011;37744;50.960;4.136;2023-03-17T07:48:17;6.70;;;2.53;;
51270;SDS011;37744;50.960;4.136;2023-03-17T07:50:43;8.77;;;2.70;;
51270;SDS011;37744;50.960;4.136;2023-03-17T07:53:09;5.38;;;2.60;;
51270;SDS011;37744;50.960;4.136;2023-03-17T07:55:35;6.65;;;2.55;;
51270;SDS011;37744;50.960;4.136;2023-03-17T07:58:05;8.13;;;2.58;;
51270;SDS011;37744;50.960;4.136;2023-03-17T08:00:31;6.60;;;2.90;;
51270;SDS011;37744;50.960;4.136;2023-03-17T08:02:58;7.05;;;2.78;;
51270;SDS011;37744;50.960;4.136;2023-03-17T08:07:53;6.47;;;2.45;;
51270;SDS011;37744;50.960;4.136;2023-03-17T08:10:25;6.45;;;2.42;;
51270;SDS011;37744;50.960;4.136;2023-03-17T08:12:53;4.78;;;2.53;;
51270;SDS011;37744;50.960;4.136;2023-03-17T08:17:49;4.93;;;2.90;;
51270;SDS011;37744;50.960;4.136;2023-03-17T08:20:15;4.72;;;2.83;;
51270;SDS011;37744;50.960;4.136;2023-03-17T08:27:37;7.88;;;2.83;;
51270;SDS011;37744;50.960;4.136;2023-03-17T08:30:03;10.27;;;2.92;;
51270;SDS011;37744;50.960;4.136;2023-03-17T08:32:32;7.45;;;2.63;;
51270;SDS011;37744;50.960;4.136;2023-03-17T08:35:01;6.28;;;2.83;;
51270;SDS011;37744;50.960;4.136;2023-03-17T08:37:26;6.20;;;2.45;;
51270;SDS011;37744;50.960;4.136;2023-03-17T08:39:51;6.72;;;2.35;;
51270;SDS011;37744;50.960;4.136;2023-03-17T08:44:48;7.45;;;2.60;;
51270;SDS011;37744;50.960;4.136;2023-03-17T08:47:20;7.05;;;2.92;;
51270;SDS011;37744;50.960;4.136;2023-03-17T08:49:46;8.35;;;2.90;;
51270;SDS011;37744;50.960;4.136;2023-03-17T08:52:15;6.18;;;2.78;;
51270;SDS011;37744;50.960;4.136;2023-03-17T08:54:41;5.32;;;2.50;;
51270;SDS011;37744;50.960;4.136;2023-03-17T08:57:09;6.88;;;2.70;;
51270;SDS011;37744;50.960;4.136;2023-03-17T08:59:34;6.28;;;2.40;;
51270;SDS011;37744;50.960;4.136;2023-03-17T09:02:02;5.85;;;2.50;;
51270;SDS011;37744;50.960;4.136;2023-03-17T09:04:28;12.05;;;2.70;;
51270;SDS011;37744;50.960;4.136;2023-03-17T09:06:55;6.13;;;2.65;;
51270;SDS011;37744;50.960;4.136;2023-03-17T09:09:22;7.70;;;3.10;;
51270;SDS011;37744;50.960;4.136;2023-03-17T09:11:51;6.72;;;2.40;;
51270;SDS011;37744;50.960;4.136;2023-03-17T09:14:19;3.35;;;2.40;;
51270;SDS011;37744;50.960;4.136;2023-03-17T09:16:51;5.85;;;2.60;;
51270;SDS011;37744;50.960;4.136;2023-03-17T09:19:26;4.28;;;2.28;;
51270;SDS011;37744;50.960;4.136;2023-03-17T09:21:54;6.40;;;2.80;;
51270;SDS011;37744;50.960;4.136;2023-03-17T09:24:19;6.35;;;3.13;;
51270;SDS011;37744;50.960;4.136;2023-03-17T09:26:47;8.65;;;3.13;;
51270;SDS011;37744;50.960;4.136;2023-03-17T09:29:14;5.25;;;3.15;;
51270;SDS011;37744;50.960;4.136;2023-03-17T09:31:45;6.10;;;2.90;;
51270;SDS011;37744;50.960;4.136;2023-03-17T09:34:15;4.32;;;2.55;;
51270;SDS011;37744;50.960;4.136;2023-03-17T09:36:41;7.78;;;2.92;;
51270;SDS011;37744;50.960;4.136;2023-03-17T09:39:07;5.88;;;2.75;;
51270;SDS011;37744;50.960;4.136;2023-03-17T09:52:15;6.25;;;2.55;;
51270;SDS011;37744;50.960;4.136;2023-03-17T09:54:40;5.05;;;2.40;;
51270;SDS011;37744;50.960;4.136;2023-03-17T09:57:41;7.70;;;2.72;;
51270;SDS011;37744;50.960;4.136;2023-03-17T10:00:22;6.90;;;2.77;;
51270;SDS011;37744;50.960;4.136;2023-03-17T10:02:50;3.78;;;2.45;;
51270;SDS011;37744;50.960;4.136;2023-03-17T10:10:25;7.88;;;2.35;;
51270;SDS011;37744;50.960;4.136;2023-03-17T10:16:22;6.55;;;2.97;;
51270;SDS011;37744;50.960;4.136;2023-03-17T10:18:30;6.65;;;3.08;;
51270;SDS011;37744;50.960;4.136;2023-03-17T10:23:31;8.07;;;2.83;;
51270;SDS011;37744;50.960;4.136;2023-03-17T10:25:59;7.57;;;2.75;;
51270;SDS011;37744;50.960;4.136;2023-03-17T10:28:29;6.88;;;3.47;;
51270;SDS011;37744;50.960;4.136;2023-03-17T10:31:12;8.25;;;4.13;;
51270;SDS011;37744;50.960;4.136;2023-03-17T10:33:40;5.70;;;3.13;;
51270;SDS011;37744;50.960;4.136;2023-03-17T10:36:09;6.72;;;3.10;;
51270;SDS011;37744;50.960;4.136;2023-03-17T10:41:08;6.90;;;3.28;;
51270;SDS011;37744;50.960;4.136;2023-03-17T10:46:13;6.85;;;3.08;;
51270;SDS011;37744;50.960;4.136;2023-03-17T10:48:41;7.72;;;2.70;;
51270;SDS011;37744;50.960;4.136;2023-03-17T10:53:38;6.88;;;2.97;;
51270;SDS011;37744;50.960;4.136;2023-03-17T10:56:22;8.80;;;3.03;;
51270;SDS011;37744;50.960;4.136;2023-03-17T10:58:51;8.30;;;2.60;;
51270;SDS011;37744;50.960;4.136;2023-03-17T11:01:26;5.43;;;2.88;;
51270;SDS011;37744;50.960;4.136;2023-03-17T11:03:54;10.98;;;2.85;;
51270;SDS011;37744;50.960;4.136;2023-03-17T11:06:20;8.50;;;3.20;;
51270;SDS011;37744;50.960;4.136;2023-03-17T11:08:53;5.05;;;3.10;;
51270;SDS011;37744;50.960;4.136;2023-03-17T11:14:15;7.25;;;2.83;;
51270;SDS011;37744;50.960;4.136;2023-03-17T11:24:52;6.90;;;2.70;;
51270;SDS011;37744;50.960;4.136;2023-03-17T11:40:46;4.70;;;2.63;;
51270;SDS011;37744;50.960;4.136;2023-03-17T11:51:20;6.35;;;2.72;;
51270;SDS011;37744;50.960;4.136;2023-03-17T11:56:52;8.70;;;3.67;;
51270;SDS011;37744;50.960;4.136;2023-03-17T11:59:34;7.50;;;3.33;;
51270;SDS011;37744;50.960;4.136;2023-03-17T12:13:04;7.65;;;3.42;;
51270;SDS011;37744;50.960;4.136;2023-03-17T12:15:34;8.23;;;3.85;;
51270;SDS011;37744;50.960;4.136;2023-03-17T12:23:30;8.48;;;3.00;;
51270;SDS011;37744;50.960;4.136;2023-03-17T12:28:29;8.23;;;3.20;;
51270;SDS011;37744;50.960;4.136;2023-03-17T12:31:13;5.35;;;3.03;;
51270;SDS011;37744;50.960;4.136;2023-03-17T12:34:02;8.35;;;3.10;;
51270;SDS011;37744;50.960;4.136;2023-03-17T12:36:33;6.20;;;2.67;;
51270;SDS011;37744;50.960;4.136;2023-03-17T12:39:01;5.32;;;2.10;;
51270;SDS011;37744;50.960;4.136;2023-03-17T12:54:32;5.00;;;2.28;;
51270;SDS011;37744;50.960;4.136;2023-03-17T12:59:38;7.57;;;2.60;;
51270;SDS011;37744;50.960;4.136;2023-03-17T13:04:57;3.88;;;2.15;;
51270;SDS011;37744;50.960;4.136;2023-03-17T13:15:27;4.32;;;2.45;;
51270;SDS011;37744;50.960;4.136;2023-03-17T13:18:32;4.45;;;2.22;;
51270;SDS011;37744;50.960;4.136;2023-03-17T13:21:07;5.15;;;2.80;;
51270;SDS011;37744;50.960;4.136;2023-03-17T13:26:01;5.95;;;2.70;;
51270;SDS011;37744;50.960;4.136;2023-03-17T13:33:39;6.72;;;2.70;;
51270;SDS011;37744;50.960;4.136;2023-03-17T13:36:15;4.40;;;2.53;;
51270;SDS011;37744;50.960;4.136;2023-03-17T13:38:48;8.20;;;3.20;;
51270;SDS011;37744;50.960;4.136;2023-03-17T13:41:37;5.70;;;2.53;;
51270;SDS011;37744;50.960;4.136;2023-03-17T13:46:54;5.38;;;1.70;;
51270;SDS011;37744;50.960;4.136;2023-03-17T13:49:33;4.18;;;2.13;;
51270;SDS011;37744;50.960;4.136;2023-03-17T13:52:02;5.38;;;2.20;;
51270;SDS011;37744;50.960;4.136;2023-03-17T13:54:40;4.28;;;2.00;;
51270;SDS011;37744;50.960;4.136;2023-03-17T14:02:35;6.35;;;2.40;;
51270;SDS011;37744;50.960;4.136;2023-03-17T14:05:06;6.18;;;2.00;;
51270;SDS011;37744;50.960;4.136;2023-03-17T14:07:42;3.22;;;2.10;;
51270;SDS011;37744;50.960;4.136;2023-03-17T14:10:17;7.20;;;2.20;;
51270;SDS011;37744;50.960;4.136;2023-03-17T14:15:32;5.75;;;2.30;;
51270;SDS011;37744;50.960;4.136;2023-03-17T14:18:07;5.63;;;2.25;;
51270;SDS011;37744;50.960;4.136;2023-03-17T14:20:37;4.53;;;2.10;;
51270;SDS011;37744;50.960;4.136;2023-03-17T14:23:08;5.75;;;2.10;;
51270;SDS011;37744;50.960;4.136;2023-03-17T14:25:36;6.07;;;2.20;;
51270;SDS011;37744;50.960;4.136;2023-03-17T14:30:35;8.45;;;2.90;;
51270;SDS011;37744;50.960;4.136;2023-03-17T14:33:05;8.77;;;2.55;;
51270;SDS011;37744;50.960;4.136;2023-03-17T14:35:38;6.35;;;2.50;;
51270;SDS011;37744;50.960;4.136;2023-03-17T14:40:50;9.15;;;2.55;;
51270;SDS011;37744;50.960;4.136;2023-03-17T14:43:23;4.53;;;2.40;;
51270;SDS011;37744;50.960;4.136;2023-03-17T14:45:54;4.60;;;1.90;;
51270;SDS011;37744;50.960;4.136;2023-03-17T14:48:27;7.03;;;2.20;;
51270;SDS011;37744;50.960;4.136;2023-03-17T14:50:56;4.32;;;1.70;;
51270;SDS011;37744;50.960;4.136;2023-03-17T14:53:34;5.90;;;2.08;;
51270;SDS011;37744;50.960;4.136;2023-03-17T14:58:42;4.78;;;1.67;;
51270;SDS011;37744;50.960;4.136;2023-03-17T15:01:15;5.63;;;1.95;;
51270;SDS011;37744;50.960;4.136;2023-03-17T15:03:58;3.95;;;1.88;;
51270;SDS011;37744;50.960;4.136;2023-03-17T15:06:31;4.47;;;2.00;;
51270;SDS011;37744;50.960;4.136;2023-03-17T15:08:58;3.58;;;2.17;;
51270;SDS011;37744;50.960;4.136;2023-03-17T15:11:25;4.70;;;2.50;;
51270;SDS011;37744;50.960;4.136;2023-03-17T15:14:01;5.97;;;2.17;;
51270;SDS011;37744;50.960;4.136;2023-03-17T15:16:29;9.10;;;2.50;;
51270;SDS011;37744;50.960;4.136;2023-03-17T15:19:05;8.60;;;1.95;;
51270;SDS011;37744;50.960;4.136;2023-03-17T15:21:38;5.57;;;2.33;;
51270;SDS011;37744;50.960;4.136;2023-03-17T15:27:04;6.43;;;2.50;;
51270;SDS011;37744;50.960;4.136;2023-03-17T15:29:29;8.70;;;2.47;;
51270;SDS011;37744;50.960;4.136;2023-03-17T15:34:49;8.77;;;2.78;;
51270;SDS011;37744;50.960;4.136;2023-03-17T15:39:47;7.80;;;2.50;;
51270;SDS011;37744;50.960;4.136;2023-03-17T15:42:12;5.75;;;2.42;;
51270;SDS011;37744;50.960;4.136;2023-03-17T15:44:38;7.38;;;2.67;;
51270;SDS011;37744;50.960;4.136;2023-03-17T15:47:04;8.77;;;2.92;;
51270;SDS011;37744;50.960;4.136;2023-03-17T15:49:33;8.82;;;2.75;;
51270;SDS011;37744;50.960;4.136;2023-03-17T15:54:28;8.05;;;3.45;;
51270;SDS011;37744;50.960;4.136;2023-03-17T15:56:55;8.60;;;2.92;;
51270;SDS011;37744;50.960;4.136;2023-03-17T15:59:22;10.18;;;3.10;;
51270;SDS011;37744;50.960;4.136;2023-03-17T16:01:48;10.13;;;2.80;;
51270;SDS011;37744;50.960;4.136;2023-03-17T16:06:45;7.60;;;3.10;;
51270;SDS011;37744;50.960;4.136;2023-03-17T16:09:15;10.40;;;2.85;;
51270;SDS011;37744;50.960;4.136;2023-03-17T16:11:44;5.75;;;2.67;;
51270;SDS011;37744;50.960;4.136;2023-03-17T16:14:10;10.48;;;2.70;;
51270;SDS011;37744;50.960;4.136;2023-03-17T16:16:40;5.45;;;2.70;;
51270;SDS011;37744;50.960;4.136;2023-03-17T16:19:07;6.25;;;3.22;;
51270;SDS011;37744;50.960;4.136;2023-03-17T16:21:36;4.65;;;2.70;;
51270;SDS011;37744;50.960;4.136;2023-03-17T16:24:03;6.68;;;2.90;;
51270;SDS011;37744;50.960;4.136;2023-03-17T16:26:29;8.15;;;3.20;;
51270;SDS011;37744;50.960;4.136;2023-03-17T16:28:55;6.72;;;2.47;;
51270;SDS011;37744;50.960;4.136;2023-03-17T16:31:27;8.27;;;2.85;;
51270;SDS011;37744;50.960;4.136;2023-03-17T16:33:56;5.93;;;2.63;;
51270;SDS011;37744;50.960;4.136;2023-03-17T16:36:24;10.15;;;2.90;;
51270;SDS011;37744;50.960;4.136;2023-03-17T16:41:20;13.73;;;6.47;;
51270;SDS011;37744;50.960;4.136;2023-03-17T16:43:47;10.55;;;5.10;;
51270;SDS011;37744;50.960;4.136;2023-03-17T16:46:17;10.00;;;4.95;;
51270;SDS011;37744;50.960;4.136;2023-03-17T16:48:43;13.45;;;7.43;;
51270;SDS011;37744;50.960;4.136;2023-03-17T16:51:09;8.85;;;3.90;;
51270;SDS011;37744;50.960;4.136;2023-03-17T16:53:37;6.72;;;4.03;;
51270;SDS011;37744;50.960;4.136;2023-03-17T16:58:34;6.07;;;3.78;;
51270;SDS011;37744;50.960;4.136;2023-03-17T17:01:01;6.43;;;3.53;;
51270;SDS011;37744;50.960;4.136;2023-03-17T17:03:27;9.07;;;4.15;;
51270;SDS011;37744;50.960;4.136;2023-03-17T17:05:53;7.70;;;3.40;;
51270;SDS011;37744;50.960;4.136;2023-03-17T17:08:19;7.55;;;3.53;;
51270;SDS011;37744;50.960;4.136;2023-03-17T17:10:48;10.13;;;4.10;;
51270;SDS011;37744;50.960;4.136;2023-03-17T17:13:13;8.68;;;4.38;;
51270;SDS011;37744;50.960;4.136;2023-03-17T17:15:40;11.60;;;4.55;;
51270;SDS011;37744;50.960;4.136;2023-03-17T17:18:17;8.68;;;3.53;;
51270;SDS011;37744;50.960;4.136;2023-03-17T17:20:46;10.57;;;5.65;;
51270;SDS011;37744;50.960;4.136;2023-03-17T17:23:14;9.70;;;4.80;;
51270;SDS011;37744;50.960;4.136;2023-03-17T17:25:40;8.30;;;4.68;;
51270;SDS011;37744;50.960;4.136;2023-03-17T17:28:07;12.52;;;5.00;;
51270;SDS011;37744;50.960;4.136;2023-03-17T17:30:32;8.13;;;4.43;;
51270;SDS011;37744;50.960;4.136;2023-03-17T17:32:58;9.57;;;4.90;;
51270;SDS011;37744;50.960;4.136;2023-03-17T17:35:38;9.82;;;4.90;;
51270;SDS011;37744;50.960;4.136;2023-03-17T17:38:04;6.85;;;4.65;;
51270;SDS011;37744;50.960;4.136;2023-03-17T17:40:32;16.23;;;8.20;;
51270;SDS011;37744;50.960;4.136;2023-03-17T17:42:59;9.65;;;5.65;;
51270;SDS011;37744;50.960;4.136;2023-03-17T17:45:29;16.73;;;7.30;;
51270;SDS011;37744;50.960;4.136;2023-03-17T17:47:54;11.93;;;6.93;;
51270;SDS011;37744;50.960;4.136;2023-03-17T17:50:24;11.50;;;6.40;;
51270;SDS011;37744;50.960;4.136;2023-03-17T17:52:50;14.90;;;7.30;;
51270;SDS011;37744;50.960;4.136;2023-03-17T17:55:16;16.45;;;7.90;;
51270;SDS011;37744;50.960;4.136;2023-03-17T17:57:42;17.30;;;7.68;;
51270;SDS011;37744;50.960;4.136;2023-03-17T18:00:08;17.42;;;7.30;;
51270;SDS011;37744;50.960;4.136;2023-03-17T18:02:34;13.18;;;5.72;;
51270;SDS011;37744;50.960;4.136;2023-03-17T18:07:31;20.25;;;7.32;;
51270;SDS011;37744;50.960;4.136;2023-03-17T18:09:56;17.10;;;6.72;;
51270;SDS011;37744;50.960;4.136;2023-03-17T18:14:53;11.80;;;5.75;;
51270;SDS011;37744;50.960;4.136;2023-03-17T18:17:20;13.07;;;6.35;;
51270;SDS011;37744;50.960;4.136;2023-03-17T18:19:49;13.65;;;5.75;;
51270;SDS011;37744;50.960;4.136;2023-03-17T18:22:17;15.75;;;6.05;;
51270;SDS011;37744;50.960;4.136;2023-03-17T18:24:43;14.52;;;6.90;;
51270;SDS011;37744;50.960;4.136;2023-03-17T18:27:09;15.05;;;8.13;;
51270;SDS011;37744;50.960;4.136;2023-03-17T18:29:35;14.45;;;7.95;;
51270;SDS011;37744;50.960;4.136;2023-03-17T18:32:02;16.77;;;9.88;;
51270;SDS011;37744;50.960;4.136;2023-03-17T18:34:30;21.27;;;9.98;;
51270;SDS011;37744;50.960;4.136;2023-03-17T18:36:56;18.85;;;10.35;;
51270;SDS011;37744;50.960;4.136;2023-03-17T18:39:23;19.88;;;10.60;;
51270;SDS011;37744;50.960;4.136;2023-03-17T18:41:48;22.10;;;9.93;;
51270;SDS011;37744;50.960;4.136;2023-03-17T18:44:14;15.52;;;7.95;;
51270;SDS011;37744;50.960;4.136;2023-03-17T18:46:39;11.90;;;7.13;;
51270;SDS011;37744;50.960;4.136;2023-03-17T18:49:05;17.50;;;8.00;;
51270;SDS011;37744;50.960;4.136;2023-03-17T18:51:30;21.27;;;9.15;;